Solberg-Hunterdon (N51)
Readington, NJ
Field Elevation: 195
Lat: 40°34.98N  Long: 74°44.19W
CTAF/Unicom Freq: 122.8000
   
     For Weather-by-Phone, call 908 534 4979
Weather Advisories
2016-12-09   21:08 Z
Altimeter 30.20" Hg
Wind 290° @ 8 KT
Gusts 19 KT
Visibility 10 SM
Ceiling SCT056
Temperature 2° C (36° F)
Dewpoint -8° C (18° F)
Relative Humidity 46%
Density Altitude --
Condensation Altitude 5,500 feet
Wind Chill: -2° C (28° F)
Wind and Runways
Indicated Runway = 31
Headwind = 8 kt
Crosswind = 3 kt
History
 
 
 
More Info
All DigiWx sites map
NOAA Forecast
 
Airport IQ 5010
(4N1) Greenwood Lake, NJ
(N40) Sky Manor, NJ
 
about DigiWx
 
FAA Disclaimer: The data displayed is for advisory purposes only and is not to be used for flight planning or operations. For official data, please call 908 534 4979 to hear the current automated AWOS voice message.
  METAR N51 092108Z AUTO 29008G19KT 10 SM SCT056 02/M08 A3020